BAW2231 EGKK-VTBS
Flight info
| Callsign | BAW2231 |
|---|---|
| Flight time | N/A |
| Altitude | 35000 |
| Route | ODVIK Y311 DVR UL9 KONAN UL607 FERDI DCT REMBA DCT LIRSU DCT BANUX DCT BABEG DCT KONIN DCT ERKIR DCT KFT DCT PODET DCT ZINPE DCT ETIDA DCT EKSOL DCT UDROS UM859 KARDE UN644 FALAZ/N0488F370 UN644 ROLIN DCT FOQUS DCT LAGAS DCT DISKA M737 VERCA M747 BODKA P130 MAMED B449 RANAH L750 BIROS/N0485F390 L750 MERUN G452 LKN R460 CEA DCT DOPID P646 PTN N895 BETNO G463 TARED DCT WILLA WILLA1C |
| Aircraft | B772/H-SDE2E3FGHIJ5LORVWXY/LB1D1 |
Departure
| Time | 2026-05-05 01:46 |
|---|---|
| Airport | London Gatwick Airport (EGKK) |
Arrival
| Time | N/A |
|---|---|
| Airport | Suvarnabhumi Airport (VTBS) |
| Time | Latitude | Longitude | Altitude | Speed | Heading |
|---|---|---|---|---|---|
| 2026-05-05 00:44 | 51.15578 | -0.17003 | 206 ft | 0 kts | 168° |
| 2026-05-05 01:29 | 51.15586 | -0.17006 | 206 ft | 2 kts | 168° |
| 2026-05-05 01:29 | 51.15601 | -0.17011 | 206 ft | 2 kts | 168° |
| 2026-05-05 01:29 | 51.15615 | -0.17016 | 206 ft | 2 kts | 168° |
| 2026-05-05 01:29 | 51.15630 | -0.17020 | 206 ft | 2 kts | 185° |
| 2026-05-05 01:30 | 51.15644 | -0.17012 | 206 ft | 2 kts | 224° |
| 2026-05-05 01:30 | 51.15652 | -0.16992 | 206 ft | 2 kts | 259° |
| 2026-05-05 01:30 | 51.15654 | -0.16969 | 206 ft | 2 kts | 261° |
| 2026-05-05 01:30 | 51.15657 | -0.16946 | 206 ft | 2 kts | 257° |
| 2026-05-05 01:31 | 51.15660 | -0.16927 | 206 ft | 0 kts | 257° |
| 2026-05-05 01:34 | 51.15658 | -0.16935 | 206 ft | 2 kts | 257° |
| 2026-05-05 01:34 | 51.15654 | -0.16967 | 206 ft | 3 kts | 257° |
| 2026-05-05 01:35 | 51.15648 | -0.17006 | 206 ft | 4 kts | 258° |
| 2026-05-05 01:35 | 51.15641 | -0.17056 | 206 ft | 5 kts | 258° |
| 2026-05-05 01:35 | 51.15631 | -0.17129 | 206 ft | 8 kts | 258° |
| 2026-05-05 01:35 | 51.15615 | -0.17237 | 206 ft | 11 kts | 256° |
| 2026-05-05 01:36 | 51.15598 | -0.17345 | 206 ft | 6 kts | 257° |
| 2026-05-05 01:36 | 51.15580 | -0.17418 | 206 ft | 7 kts | 234° |
| 2026-05-05 01:36 | 51.15548 | -0.17487 | 206 ft | 8 kts | 242° |
| 2026-05-05 01:36 | 51.15529 | -0.17581 | 206 ft | 9 kts | 257° |
| 2026-05-05 01:37 | 51.15514 | -0.17688 | 206 ft | 10 kts | 258° |
| 2026-05-05 01:37 | 51.15497 | -0.17816 | 206 ft | 13 kts | 257° |
| 2026-05-05 01:37 | 51.15476 | -0.17970 | 206 ft | 15 kts | 257° |
| 2026-05-05 01:37 | 51.15455 | -0.18118 | 206 ft | 10 kts | 257° |
| 2026-05-05 01:38 | 51.15442 | -0.18214 | 206 ft | 8 kts | 257° |
| 2026-05-05 01:38 | 51.15403 | -0.18276 | 206 ft | 8 kts | 185° |
| 2026-05-05 01:38 | 51.15344 | -0.18262 | 206 ft | 8 kts | 167° |
| 2026-05-05 01:38 | 51.15286 | -0.18241 | 206 ft | 8 kts | 167° |
| 2026-05-05 01:39 | 51.15228 | -0.18229 | 206 ft | 8 kts | 195° |
| 2026-05-05 01:39 | 51.15192 | -0.18298 | 206 ft | 8 kts | 251° |
| 2026-05-05 01:39 | 51.15176 | -0.18402 | 206 ft | 11 kts | 258° |
| 2026-05-05 01:39 | 51.15155 | -0.18556 | 206 ft | 18 kts | 258° |
| 2026-05-05 01:40 | 51.15126 | -0.18777 | 206 ft | 21 kts | 258° |
| 2026-05-05 01:40 | 51.15095 | -0.19003 | 206 ft | 20 kts | 258° |
| 2026-05-05 01:40 | 51.15065 | -0.19214 | 206 ft | 19 kts | 257° |
| 2026-05-05 01:40 | 51.15037 | -0.19415 | 206 ft | 18 kts | 257° |
| 2026-05-05 01:41 | 51.15011 | -0.19605 | 206 ft | 17 kts | 257° |
| 2026-05-05 01:41 | 51.14986 | -0.19785 | 206 ft | 16 kts | 257° |
| 2026-05-05 01:41 | 51.14961 | -0.19959 | 206 ft | 15 kts | 257° |
| 2026-05-05 01:41 | 51.14938 | -0.20124 | 206 ft | 15 kts | 257° |
| 2026-05-05 01:42 | 51.14916 | -0.20285 | 206 ft | 14 kts | 258° |
| 2026-05-05 01:42 | 51.14895 | -0.20439 | 206 ft | 14 kts | 258° |
| 2026-05-05 01:42 | 51.14874 | -0.20592 | 206 ft | 13 kts | 258° |
| 2026-05-05 01:42 | 51.14854 | -0.20740 | 206 ft | 13 kts | 258° |
| 2026-05-05 01:43 | 51.14835 | -0.20884 | 206 ft | 13 kts | 258° |
| 2026-05-05 01:43 | 51.14816 | -0.21027 | 206 ft | 12 kts | 258° |
| 2026-05-05 01:43 | 51.14791 | -0.21161 | 206 ft | 12 kts | 250° |
| 2026-05-05 01:43 | 51.14768 | -0.21294 | 206 ft | 12 kts | 256° |
| 2026-05-05 01:44 | 51.14732 | -0.21391 | 206 ft | 7 kts | 204° |
| 2026-05-05 01:44 | 51.14681 | -0.21377 | 206 ft | 7 kts | 148° |
| 2026-05-05 01:44 | 51.14630 | -0.21337 | 206 ft | 9 kts | 162° |
| 2026-05-05 01:44 | 51.14555 | -0.21290 | 206 ft | 14 kts | 144° |
| 2026-05-05 01:45 | 51.14523 | -0.21147 | 206 ft | 14 kts | 81° |
| 2026-05-05 01:45 | 51.14556 | -0.20905 | 206 ft | 39 kts | 78° |
| 2026-05-05 01:45 | 51.14665 | -0.20112 | 206 ft | 103 kts | 78° |
| 2026-05-05 01:45 | 51.14858 | -0.18715 | 206 ft | 156 kts | 77° |
| 2026-05-05 01:46 | 51.15131 | -0.16782 | 300 ft | 191 kts | 77° |
| 2026-05-05 01:46 | 51.15406 | -0.14775 | 945 ft | 187 kts | 77° |
| 2026-05-05 01:46 | 51.15664 | -0.12851 | 1672 ft | 177 kts | 75° |
| 2026-05-05 01:46 | 51.15941 | -0.10851 | 1746 ft | 195 kts | 75° |
| 2026-05-05 01:47 | 51.16249 | -0.08622 | 1892 ft | 213 kts | 75° |
| 2026-05-05 01:47 | 51.16577 | -0.06227 | 2138 ft | 230 kts | 76° |
| 2026-05-05 01:47 | 51.16870 | -0.03651 | 2466 ft | 244 kts | 85° |
| 2026-05-05 01:47 | 51.16865 | -0.00920 | 2957 ft | 252 kts | 89° |
| 2026-05-05 01:48 | 51.16807 | 0.01871 | 3497 ft | 256 kts | 89° |
| 2026-05-05 01:48 | 51.16751 | 0.04697 | 4060 ft | 259 kts | 89° |
| 2026-05-05 01:48 | 51.16698 | 0.07558 | 4651 ft | 261 kts | 89° |
| 2026-05-05 01:48 | 51.16644 | 0.10480 | 5191 ft | 265 kts | 90° |
| 2026-05-05 01:49 | 51.16589 | 0.13395 | 5748 ft | 268 kts | 90° |
| 2026-05-05 01:49 | 51.16537 | 0.16404 | 5956 ft | 274 kts | 89° |
| 2026-05-05 01:49 | 51.16547 | 0.19435 | 6055 ft | 281 kts | 88° |
| 2026-05-05 01:49 | 51.16565 | 0.22537 | 6840 ft | 275 kts | 88° |
| 2026-05-05 01:50 | 51.16575 | 0.25532 | 7453 ft | 275 kts | 88° |
| 2026-05-05 01:50 | 51.16581 | 0.28601 | 7930 ft | 279 kts | 89° |
| 2026-05-05 01:50 | 51.16586 | 0.31670 | 8445 ft | 280 kts | 89° |
| 2026-05-05 01:50 | 51.16589 | 0.34748 | 8946 ft | 282 kts | 89° |
| 2026-05-05 01:51 | 51.16592 | 0.37886 | 9439 ft | 282 kts | 89° |
| 2026-05-05 01:51 | 51.16594 | 0.40986 | 9904 ft | 284 kts | 89° |
| 2026-05-05 01:51 | 51.16595 | 0.44139 | 10214 ft | 292 kts | 89° |
| 2026-05-05 01:51 | 51.16595 | 0.47483 | 10274 ft | 309 kts | 89° |
| 2026-05-05 01:52 | 51.16594 | 0.50968 | 10344 ft | 326 kts | 89° |
| 2026-05-05 01:52 | 51.16593 | 0.54684 | 10454 ft | 342 kts | 89° |
| 2026-05-05 01:52 | 51.16590 | 0.58531 | 10559 ft | 358 kts | 89° |
| 2026-05-05 01:52 | 51.16586 | 0.62545 | 10809 ft | 369 kts | 89° |
| 2026-05-05 01:53 | 51.16579 | 0.66644 | 11320 ft | 373 kts | 90° |
| 2026-05-05 01:53 | 51.16572 | 0.70790 | 11939 ft | 374 kts | 90° |
| 2026-05-05 01:53 | 51.16563 | 0.74976 | 12511 ft | 377 kts | 90° |
| 2026-05-05 01:53 | 51.16552 | 0.79097 | 13085 ft | 380 kts | 90° |
| 2026-05-05 01:54 | 51.16540 | 0.83316 | 13672 ft | 383 kts | 90° |
| 2026-05-05 01:54 | 51.16526 | 0.87577 | 14261 ft | 387 kts | 90° |
| 2026-05-05 01:54 | 51.16511 | 0.91875 | 14859 ft | 390 kts | 90° |
| 2026-05-05 01:54 | 51.16494 | 0.96173 | 15458 ft | 393 kts | 90° |
| 2026-05-05 01:55 | 51.16475 | 1.00502 | 16065 ft | 396 kts | 90° |
| 2026-05-05 01:55 | 51.16455 | 1.04895 | 16652 ft | 399 kts | 90° |
| 2026-05-05 01:55 | 51.16432 | 1.09318 | 17266 ft | 401 kts | 90° |
| 2026-05-05 01:55 | 51.16408 | 1.13745 | 17856 ft | 404 kts | 90° |
| 2026-05-05 01:56 | 51.16382 | 1.18228 | 18413 ft | 407 kts | 90° |
| 2026-05-05 01:56 | 51.16354 | 1.22701 | 18957 ft | 411 kts | 90° |
| 2026-05-05 01:56 | 51.16324 | 1.27280 | 19466 ft | 415 kts | 91° |
| 2026-05-05 01:56 | 51.16291 | 1.31904 | 20006 ft | 419 kts | 91° |
| 2026-05-05 01:57 | 51.16257 | 1.36526 | 20533 ft | 422 kts | 91° |
| 2026-05-05 01:57 | 51.16094 | 1.41189 | 21059 ft | 425 kts | 95° |
| 2026-05-05 01:57 | 51.15850 | 1.45884 | 21550 ft | 429 kts | 95° |
| 2026-05-05 01:57 | 51.15606 | 1.50604 | 22071 ft | 432 kts | 95° |
| 2026-05-05 01:58 | 51.15365 | 1.55326 | 22577 ft | 435 kts | 95° |
| 2026-05-05 01:58 | 51.15120 | 1.60143 | 23037 ft | 439 kts | 95° |
| 2026-05-05 01:58 | 51.14876 | 1.64986 | 23521 ft | 442 kts | 95° |
| 2026-05-05 01:58 | 51.14628 | 1.69886 | 23991 ft | 445 kts | 96° |
| 2026-05-05 01:59 | 51.14377 | 1.74823 | 24452 ft | 449 kts | 96° |
| 2026-05-05 01:59 | 51.14126 | 1.79750 | 24836 ft | 453 kts | 96° |
| 2026-05-05 01:59 | 51.13871 | 1.84739 | 25251 ft | 457 kts | 96° |
| 2026-05-05 01:59 | 51.13610 | 1.89791 | 25665 ft | 461 kts | 96° |
| 2026-05-05 02:00 | 51.13345 | 1.94885 | 26057 ft | 465 kts | 96° |
| 2026-05-05 02:00 | 51.13076 | 2.00023 | 26461 ft | 468 kts | 96° |
| 2026-05-05 02:00 | 51.12804 | 2.05180 | 26825 ft | 472 kts | 96° |
| 2026-05-05 02:00 | 51.12529 | 2.10345 | 27180 ft | 476 kts | 96° |
| 2026-05-05 02:01 | 51.12247 | 2.15595 | 27522 ft | 480 kts | 96° |
| 2026-05-05 02:01 | 51.11960 | 2.20895 | 27854 ft | 484 kts | 96° |
| 2026-05-05 02:01 | 51.11669 | 2.26241 | 28205 ft | 487 kts | 96° |
| 2026-05-05 02:01 | 51.11373 | 2.31625 | 28556 ft | 490 kts | 96° |
| 2026-05-05 02:02 | 51.11074 | 2.37004 | 28865 ft | 494 kts | 96° |
| 2026-05-05 02:02 | 51.10772 | 2.42415 | 29174 ft | 497 kts | 96° |
| 2026-05-05 02:02 | 51.10463 | 2.47883 | 29483 ft | 500 kts | 96° |
| 2026-05-05 02:02 | 51.10149 | 2.53406 | 29788 ft | 504 kts | 96° |
| 2026-05-05 02:03 | 51.09831 | 2.58956 | 30142 ft | 505 kts | 96° |
| 2026-05-05 02:03 | 51.09420 | 2.64573 | 30574 ft | 504 kts | 102° |
| 2026-05-05 02:03 | 51.08591 | 2.70027 | 30951 ft | 503 kts | 108° |
| 2026-05-05 02:03 | 51.07625 | 2.75431 | 31353 ft | 502 kts | 108° |
| 2026-05-05 02:04 | 51.06649 | 2.80813 | 31804 ft | 501 kts | 109° |
| 2026-05-05 02:04 | 51.05683 | 2.86127 | 32270 ft | 498 kts | 109° |
| 2026-05-05 02:04 | 51.04713 | 2.91446 | 32724 ft | 496 kts | 109° |
| 2026-05-05 02:04 | 51.03739 | 2.96772 | 33126 ft | 495 kts | 108° |
| 2026-05-05 02:05 | 51.02778 | 3.02014 | 33516 ft | 494 kts | 108° |
| 2026-05-05 02:05 | 51.01819 | 3.07233 | 33855 ft | 494 kts | 108° |
| 2026-05-05 02:05 | 51.00854 | 3.12464 | 34186 ft | 493 kts | 108° |
| 2026-05-05 02:05 | 50.99894 | 3.17656 | 34538 ft | 492 kts | 108° |
| 2026-05-05 02:06 | 50.98926 | 3.22876 | 34888 ft | 491 kts | 108° |
| 2026-05-05 02:06 | 50.97967 | 3.28033 | 34939 ft | 493 kts | 109° |
| 2026-05-05 02:06 | 50.96029 | 3.38417 | 34935 ft | 490 kts | 109° |
| 2026-05-05 02:07 | 50.94091 | 3.48736 | 34937 ft | 490 kts | 109° |
| 2026-05-05 02:07 | 50.92147 | 3.59037 | 34931 ft | 491 kts | 109° |
| 2026-05-05 02:08 | 50.90178 | 3.69417 | 34926 ft | 492 kts | 110° |
| 2026-05-05 02:08 | 50.88194 | 3.79819 | 34930 ft | 493 kts | 110° |
| 2026-05-05 02:09 | 50.86203 | 3.90197 | 34929 ft | 494 kts | 110° |
| 2026-05-05 02:09 | 50.84198 | 4.00596 | 34927 ft | 496 kts | 110° |
| 2026-05-05 02:10 | 50.82190 | 4.10956 | 34925 ft | 496 kts | 110° |
| 2026-05-05 02:10 | 50.80161 | 4.21370 | 34927 ft | 495 kts | 110° |
| 2026-05-05 02:11 | 50.78130 | 4.31733 | 34929 ft | 495 kts | 110° |
| 2026-05-05 02:11 | 50.76082 | 4.42129 | 34929 ft | 495 kts | 110° |
| 2026-05-05 02:12 | 50.72998 | 4.57672 | 34928 ft | 495 kts | 111° |
| 2026-05-05 02:13 | 50.70926 | 4.68046 | 34922 ft | 496 kts | 111° |
| 2026-05-05 02:13 | 50.68858 | 4.78352 | 34918 ft | 495 kts | 111° |
| 2026-05-05 02:14 | 50.66761 | 4.88735 | 34913 ft | 498 kts | 112° |
| 2026-05-05 02:14 | 50.64052 | 4.98626 | 34908 ft | 492 kts | 120° |
| 2026-05-05 02:15 | 50.61135 | 5.08335 | 34909 ft | 493 kts | 120° |
| 2026-05-05 02:15 | 50.58178 | 5.18129 | 34911 ft | 493 kts | 120° |
| 2026-05-05 02:16 | 50.55238 | 5.27827 | 34914 ft | 493 kts | 120° |
| 2026-05-05 02:16 | 50.52289 | 5.37512 | 34913 ft | 493 kts | 120° |
| 2026-05-05 02:17 | 50.49322 | 5.47222 | 34915 ft | 493 kts | 120° |
| 2026-05-05 02:17 | 50.46355 | 5.56890 | 34910 ft | 493 kts | 120° |
| 2026-05-05 02:18 | 50.43355 | 5.66625 | 34896 ft | 497 kts | 121° |
| 2026-05-05 02:18 | 50.40354 | 5.76329 | 34883 ft | 495 kts | 121° |
| 2026-05-05 02:19 | 50.37339 | 5.86040 | 34880 ft | 496 kts | 121° |
| 2026-05-05 02:19 | 50.34332 | 5.95684 | 34877 ft | 497 kts | 121° |
| 2026-05-05 02:20 | 50.31294 | 6.05393 | 34879 ft | 495 kts | 121° |
| 2026-05-05 02:20 | 50.28273 | 6.15007 | 34881 ft | 496 kts | 121° |
| 2026-05-05 02:21 | 50.25228 | 6.24660 | 34881 ft | 496 kts | 121° |
| 2026-05-05 02:21 | 50.22192 | 6.34244 | 34880 ft | 497 kts | 121° |
| 2026-05-05 02:22 | 50.19094 | 6.43877 | 34877 ft | 492 kts | 125° |
| 2026-05-05 02:22 | 50.15254 | 6.52590 | 34886 ft | 491 kts | 131° |
| 2026-05-05 02:23 | 50.11237 | 6.61174 | 34897 ft | 487 kts | 131° |
| 2026-05-05 02:23 | 50.07205 | 6.69743 | 34895 ft | 489 kts | 132° |
| 2026-05-05 02:24 | 50.03213 | 6.78201 | 34900 ft | 488 kts | 132° |
| 2026-05-05 02:24 | 49.99190 | 6.86694 | 34903 ft | 489 kts | 132° |
| 2026-05-05 02:25 | 49.95171 | 6.95152 | 34909 ft | 487 kts | 132° |
| 2026-05-05 02:25 | 49.91174 | 7.03536 | 34915 ft | 486 kts | 133° |
| 2026-05-05 02:26 | 49.87135 | 7.11979 | 34926 ft | 488 kts | 133° |
| 2026-05-05 02:26 | 49.83052 | 7.20487 | 34925 ft | 488 kts | 133° |
| 2026-05-05 02:27 | 49.79015 | 7.28872 | 34930 ft | 487 kts | 133° |
| 2026-05-05 02:27 | 49.74946 | 7.37295 | 34932 ft | 492 kts | 132° |
| 2026-05-05 02:28 | 49.70843 | 7.45766 | 34932 ft | 489 kts | 132° |
| 2026-05-05 02:28 | 49.66778 | 7.54129 | 34929 ft | 491 kts | 133° |
| 2026-05-05 02:29 | 49.62686 | 7.62523 | 34918 ft | 490 kts | 133° |
| 2026-05-05 02:29 | 49.58659 | 7.70757 | 34907 ft | 489 kts | 133° |
| 2026-05-05 02:30 | 49.54551 | 7.79129 | 34909 ft | 491 kts | 133° |
| 2026-05-05 02:30 | 49.50450 | 7.87462 | 34908 ft | 490 kts | 133° |
| 2026-05-05 02:31 | 49.46337 | 7.95790 | 34906 ft | 492 kts | 133° |
| 2026-05-05 02:31 | 49.42201 | 8.04142 | 34911 ft | 492 kts | 133° |
| 2026-05-05 02:32 | 49.38050 | 8.12496 | 34904 ft | 492 kts | 133° |
| 2026-05-05 02:32 | 49.33901 | 8.20822 | 34905 ft | 492 kts | 133° |
| 2026-05-05 02:33 | 49.29756 | 8.29112 | 34906 ft | 491 kts | 133° |
| 2026-05-05 02:33 | 49.25613 | 8.37375 | 34904 ft | 489 kts | 132° |
| 2026-05-05 02:34 | 49.21455 | 8.45637 | 34905 ft | 493 kts | 133° |
| 2026-05-05 02:34 | 49.17316 | 8.53844 | 34888 ft | 488 kts | 132° |
| 2026-05-05 02:35 | 49.13147 | 8.62076 | 34896 ft | 493 kts | 132° |
| 2026-05-05 02:35 | 49.09038 | 8.70443 | 34875 ft | 493 kts | 128° |
| 2026-05-05 02:36 | 49.05313 | 8.79246 | 34888 ft | 497 kts | 127° |
| 2026-05-05 02:36 | 49.01553 | 8.88070 | 34885 ft | 495 kts | 128° |
| 2026-05-05 02:37 | 48.97811 | 8.96774 | 34886 ft | 494 kts | 127° |
| 2026-05-05 02:37 | 48.94041 | 9.05486 | 34880 ft | 492 kts | 128° |
| 2026-05-05 02:38 | 48.90265 | 9.14168 | 34889 ft | 494 kts | 128° |
| 2026-05-05 02:38 | 48.86468 | 9.22862 | 34897 ft | 493 kts | 127° |
| 2026-05-05 02:39 | 48.82667 | 9.31533 | 34908 ft | 491 kts | 127° |
| 2026-05-05 02:39 | 48.78891 | 9.40117 | 34907 ft | 492 kts | 127° |
| 2026-05-05 02:40 | 48.75089 | 9.48729 | 34904 ft | 492 kts | 127° |
| 2026-05-05 02:40 | 48.71256 | 9.57386 | 34899 ft | 491 kts | 127° |
| 2026-05-05 02:41 | 48.67418 | 9.66024 | 34890 ft | 492 kts | 127° |
| 2026-05-05 02:41 | 48.63507 | 9.74518 | 34891 ft | 489 kts | 128° |
| 2026-05-05 02:42 | 48.59575 | 9.82920 | 34896 ft | 489 kts | 128° |
| 2026-05-05 02:42 | 48.55641 | 9.91310 | 34897 ft | 489 kts | 128° |
| 2026-05-05 02:43 | 48.51716 | 9.99665 | 34892 ft | 489 kts | 128° |
| 2026-05-05 02:43 | 48.47809 | 10.07959 | 34902 ft | 488 kts | 128° |
| 2026-05-05 02:44 | 48.43886 | 10.16263 | 34897 ft | 487 kts | 128° |
| 2026-05-05 02:44 | 48.39962 | 10.24545 | 34906 ft | 487 kts | 128° |
| 2026-05-05 02:45 | 48.36024 | 10.32831 | 34903 ft | 488 kts | 128° |
| 2026-05-05 02:45 | 48.32083 | 10.41099 | 34906 ft | 488 kts | 128° |
| 2026-05-05 02:46 | 48.28144 | 10.49337 | 34912 ft | 489 kts | 128° |
| 2026-05-05 02:46 | 48.24181 | 10.57602 | 34921 ft | 489 kts | 128° |
| 2026-05-05 02:47 | 48.20253 | 10.65769 | 34922 ft | 489 kts | 128° |
| 2026-05-05 02:47 | 48.16269 | 10.74027 | 34904 ft | 489 kts | 128° |
| 2026-05-05 02:48 | 48.12304 | 10.82222 | 34902 ft | 488 kts | 128° |
| 2026-05-05 02:48 | 48.08319 | 10.90431 | 34900 ft | 489 kts | 128° |
| 2026-05-05 02:49 | 48.04330 | 10.98624 | 34900 ft | 490 kts | 128° |
| 2026-05-05 02:49 | 48.00334 | 11.06808 | 34894 ft | 490 kts | 128° |
| 2026-05-05 02:50 | 47.96316 | 11.15012 | 34898 ft | 490 kts | 128° |
| 2026-05-05 02:50 | 47.92302 | 11.23184 | 34910 ft | 490 kts | 128° |
| 2026-05-05 02:51 | 47.88284 | 11.31338 | 34905 ft | 490 kts | 128° |
| 2026-05-05 02:51 | 47.84224 | 11.39563 | 34928 ft | 489 kts | 128° |
| 2026-05-05 02:52 | 47.80228 | 11.47692 | 34937 ft | 489 kts | 128° |
| 2026-05-05 02:52 | 47.76230 | 11.55802 | 34945 ft | 489 kts | 128° |
| 2026-05-05 02:53 | 47.72200 | 11.63951 | 34960 ft | 489 kts | 128° |
| 2026-05-05 02:53 | 47.68232 | 11.71949 | 34959 ft | 488 kts | 128° |
| 2026-05-05 02:54 | 47.64223 | 11.80007 | 34979 ft | 487 kts | 128° |
| 2026-05-05 02:54 | 47.60199 | 11.88070 | 34974 ft | 488 kts | 128° |
| 2026-05-05 02:55 | 47.56164 | 11.96133 | 34990 ft | 487 kts | 128° |
| 2026-05-05 02:55 | 47.52502 | 12.04527 | 34988 ft | 489 kts | 118° |
| 2026-05-05 02:56 | 47.49404 | 12.13498 | 34983 ft | 491 kts | 118° |
| 2026-05-05 02:56 | 47.46313 | 12.22441 | 35019 ft | 489 kts | 118° |
| 2026-05-05 02:57 | 47.43234 | 12.31307 | 35011 ft | 489 kts | 118° |
| 2026-05-05 02:57 | 47.40118 | 12.40244 | 35010 ft | 488 kts | 118° |
| 2026-05-05 02:58 | 47.37014 | 12.49111 | 35006 ft | 490 kts | 118° |
| 2026-05-05 02:58 | 47.33884 | 12.58019 | 35011 ft | 488 kts | 118° |
| 2026-05-05 02:59 | 47.30783 | 12.66816 | 35017 ft | 487 kts | 119° |
| 2026-05-05 02:59 | 47.27699 | 12.75534 | 35021 ft | 487 kts | 119° |
| 2026-05-05 03:00 | 47.24565 | 12.84362 | 35024 ft | 488 kts | 119° |
| 2026-05-05 03:00 | 47.21421 | 12.93191 | 35022 ft | 488 kts | 119° |
| 2026-05-05 03:01 | 47.18272 | 13.02002 | 35019 ft | 488 kts | 119° |
| 2026-05-05 03:01 | 47.15108 | 13.10828 | 34997 ft | 489 kts | 119° |
| 2026-05-05 03:02 | 47.11953 | 13.19599 | 34994 ft | 487 kts | 119° |
| 2026-05-05 03:02 | 47.08796 | 13.28346 | 35014 ft | 487 kts | 119° |
| 2026-05-05 03:03 | 47.05624 | 13.37107 | 35021 ft | 487 kts | 119° |
| 2026-05-05 03:03 | 47.02454 | 13.45834 | 35041 ft | 487 kts | 119° |
| 2026-05-05 03:04 | 46.99274 | 13.54558 | 35042 ft | 487 kts | 119° |
| 2026-05-05 03:04 | 46.96098 | 13.63241 | 35034 ft | 487 kts | 119° |
| 2026-05-05 03:05 | 46.93016 | 13.71643 | 35011 ft | 487 kts | 120° |
| 2026-05-05 03:05 | 46.89805 | 13.80368 | 35027 ft | 488 kts | 120° |
| 2026-05-05 03:06 | 46.86619 | 13.88997 | 35022 ft | 487 kts | 120° |
| 2026-05-05 03:06 | 46.83397 | 13.97696 | 35024 ft | 489 kts | 120° |
| 2026-05-05 03:07 | 46.80170 | 14.06379 | 35022 ft | 488 kts | 120° |
| 2026-05-05 03:07 | 46.76932 | 14.15064 | 35015 ft | 489 kts | 120° |
| 2026-05-05 03:08 | 46.73677 | 14.23766 | 35008 ft | 489 kts | 120° |
| 2026-05-05 03:08 | 46.70439 | 14.32397 | 35005 ft | 488 kts | 120° |
| 2026-05-05 03:09 | 46.67171 | 14.41077 | 35009 ft | 488 kts | 120° |
| 2026-05-05 03:09 | 46.63927 | 14.49669 | 35008 ft | 488 kts | 120° |
| 2026-05-05 03:10 | 46.60594 | 14.58243 | 35000 ft | 488 kts | 122° |
| 2026-05-05 03:10 | 46.57102 | 14.66740 | 35020 ft | 489 kts | 123° |
| 2026-05-05 03:11 | 46.53610 | 14.75229 | 35034 ft | 490 kts | 123° |
| 2026-05-05 03:11 | 46.50129 | 14.83681 | 35021 ft | 490 kts | 123° |
| 2026-05-05 03:12 | 46.46618 | 14.92188 | 34998 ft | 491 kts | 123° |
| 2026-05-05 03:12 | 46.43125 | 15.00633 | 34974 ft | 489 kts | 123° |
| 2026-05-05 03:13 | 46.39619 | 15.09083 | 34983 ft | 490 kts | 122° |
| 2026-05-05 03:13 | 46.36092 | 15.17559 | 34981 ft | 489 kts | 123° |
| 2026-05-05 03:14 | 46.32595 | 15.25939 | 34981 ft | 490 kts | 122° |
| 2026-05-05 03:14 | 46.29059 | 15.34386 | 34974 ft | 490 kts | 122° |
| 2026-05-05 03:15 | 46.25532 | 15.42785 | 34977 ft | 492 kts | 122° |
| 2026-05-05 03:15 | 46.22001 | 15.51171 | 34980 ft | 492 kts | 122° |
| 2026-05-05 03:16 | 46.18425 | 15.59637 | 34969 ft | 491 kts | 122° |
| 2026-05-05 03:16 | 46.15546 | 15.68436 | 34974 ft | 493 kts | 113° |
| 2026-05-05 03:17 | 46.13053 | 15.77679 | 34969 ft | 491 kts | 112° |
| 2026-05-05 03:17 | 46.10561 | 15.86871 | 34963 ft | 490 kts | 112° |
| 2026-05-05 03:18 | 46.08069 | 15.96015 | 34959 ft | 492 kts | 112° |
| 2026-05-05 03:18 | 46.05563 | 16.05159 | 34966 ft | 492 kts | 112° |
| 2026-05-05 03:19 | 46.01787 | 16.18870 | 34975 ft | 492 kts | 112° |
| 2026-05-05 03:19 | 45.99251 | 16.28033 | 34981 ft | 493 kts | 112° |
| 2026-05-05 03:20 | 45.96717 | 16.37148 | 34983 ft | 493 kts | 112° |
| 2026-05-05 03:20 | 45.94157 | 16.46326 | 34988 ft | 492 kts | 112° |
| 2026-05-05 03:21 | 45.91611 | 16.55416 | 34987 ft | 493 kts | 112° |
| 2026-05-05 03:21 | 45.89041 | 16.64560 | 34985 ft | 493 kts | 112° |
| 2026-05-05 03:22 | 45.86465 | 16.73686 | 34982 ft | 493 kts | 113° |
| 2026-05-05 03:22 | 45.83891 | 16.82776 | 34988 ft | 495 kts | 113° |
| 2026-05-05 03:23 | 45.81291 | 16.91923 | 34985 ft | 495 kts | 113° |
| 2026-05-05 03:23 | 45.78696 | 17.01015 | 34992 ft | 495 kts | 113° |
| 2026-05-05 03:24 | 45.76095 | 17.10099 | 34997 ft | 494 kts | 113° |
| 2026-05-05 03:24 | 45.73224 | 17.19079 | 35006 ft | 494 kts | 117° |
| 2026-05-05 03:25 | 45.70121 | 17.27788 | 34998 ft | 494 kts | 117° |
| 2026-05-05 03:25 | 45.66995 | 17.36530 | 35003 ft | 495 kts | 117° |
| 2026-05-05 03:26 | 45.63866 | 17.45255 | 35008 ft | 494 kts | 117° |
| 2026-05-05 03:26 | 45.60733 | 17.53967 | 35023 ft | 496 kts | 117° |
| 2026-05-05 03:27 | 45.57576 | 17.62716 | 35030 ft | 495 kts | 117° |
| 2026-05-05 03:27 | 45.54414 | 17.71452 | 35036 ft | 495 kts | 118° |
| 2026-05-05 03:28 | 45.51265 | 17.80124 | 35046 ft | 496 kts | 118° |
| 2026-05-05 03:28 | 45.48090 | 17.88843 | 35028 ft | 495 kts | 118° |
| 2026-05-05 03:29 | 45.44896 | 17.97582 | 35017 ft | 496 kts | 118° |
| 2026-05-05 03:29 | 45.41710 | 18.06273 | 35007 ft | 495 kts | 118° |
| 2026-05-05 03:30 | 45.38511 | 18.14970 | 35006 ft | 496 kts | 117° |
| 2026-05-05 03:30 | 45.35307 | 18.23657 | 35008 ft | 495 kts | 117° |
| 2026-05-05 03:31 | 45.32099 | 18.32323 | 35010 ft | 496 kts | 117° |
| 2026-05-05 03:31 | 45.28889 | 18.40969 | 35010 ft | 496 kts | 117° |
| 2026-05-05 03:32 | 45.25658 | 18.49641 | 35012 ft | 497 kts | 117° |
| 2026-05-05 03:32 | 45.22416 | 18.58318 | 35013 ft | 497 kts | 117° |
| 2026-05-05 03:33 | 45.19174 | 18.66968 | 35010 ft | 497 kts | 118° |
| 2026-05-05 03:33 | 45.15932 | 18.75590 | 35010 ft | 497 kts | 118° |
| 2026-05-05 03:34 | 45.12678 | 18.84217 | 35012 ft | 497 kts | 118° |
| 2026-05-05 03:34 | 45.09448 | 18.92752 | 35012 ft | 496 kts | 118° |
| 2026-05-05 03:35 | 45.06177 | 19.01370 | 35012 ft | 497 kts | 118° |
| 2026-05-05 03:35 | 45.02903 | 19.09969 | 35015 ft | 497 kts | 117° |
| 2026-05-05 03:36 | 44.99639 | 19.18516 | 35014 ft | 498 kts | 117° |
| 2026-05-05 03:36 | 44.96335 | 19.27139 | 35026 ft | 500 kts | 117° |
| 2026-05-05 03:37 | 44.93039 | 19.35717 | 35028 ft | 499 kts | 117° |
| 2026-05-05 03:37 | 44.89717 | 19.44332 | 35029 ft | 499 kts | 117° |
| 2026-05-05 03:38 | 44.86393 | 19.52930 | 35027 ft | 500 kts | 117° |
| 2026-05-05 03:38 | 44.83066 | 19.61506 | 35030 ft | 500 kts | 117° |
| 2026-05-05 03:39 | 44.79721 | 19.70103 | 35031 ft | 500 kts | 118° |
| 2026-05-05 03:39 | 44.76360 | 19.78715 | 35032 ft | 502 kts | 118° |
| 2026-05-05 03:40 | 44.73011 | 19.87268 | 35040 ft | 503 kts | 118° |
| 2026-05-05 03:40 | 44.69632 | 19.95872 | 35043 ft | 502 kts | 118° |
| 2026-05-05 03:41 | 44.66260 | 20.04434 | 35044 ft | 502 kts | 117° |
| 2026-05-05 03:41 | 44.62867 | 20.13019 | 35043 ft | 502 kts | 117° |
| 2026-05-05 03:42 | 44.59473 | 20.21584 | 35049 ft | 502 kts | 117° |
| 2026-05-05 03:42 | 44.56070 | 20.30144 | 35044 ft | 501 kts | 117° |
| 2026-05-05 03:43 | 44.52682 | 20.38640 | 35047 ft | 502 kts | 117° |
| 2026-05-05 03:43 | 44.49276 | 20.47155 | 35045 ft | 502 kts | 117° |
| 2026-05-05 03:44 | 44.45873 | 20.55640 | 35045 ft | 502 kts | 117° |
| 2026-05-05 03:44 | 44.42432 | 20.64189 | 35052 ft | 502 kts | 117° |
| 2026-05-05 03:45 | 44.39018 | 20.72649 | 35050 ft | 501 kts | 118° |
| 2026-05-05 03:45 | 44.35601 | 20.81088 | 35051 ft | 502 kts | 118° |
| 2026-05-05 03:46 | 44.32162 | 20.89560 | 35051 ft | 502 kts | 117° |
| 2026-05-05 03:46 | 44.28706 | 20.98047 | 35051 ft | 502 kts | 117° |
| 2026-05-05 03:47 | 44.25265 | 21.06470 | 35053 ft | 503 kts | 117° |
| 2026-05-05 03:47 | 44.21799 | 21.14932 | 35050 ft | 503 kts | 117° |
| 2026-05-05 03:48 | 44.18338 | 21.23355 | 35057 ft | 503 kts | 117° |
| 2026-05-05 03:48 | 44.14859 | 21.31795 | 35059 ft | 502 kts | 117° |
| 2026-05-05 03:49 | 44.11404 | 21.40153 | 35054 ft | 502 kts | 117° |
| 2026-05-05 03:49 | 44.07916 | 21.48569 | 35059 ft | 503 kts | 117° |
| 2026-05-05 03:50 | 44.04419 | 21.56980 | 35067 ft | 504 kts | 117° |
| 2026-05-05 03:50 | 44.00937 | 21.65329 | 35076 ft | 503 kts | 118° |
| 2026-05-05 03:51 | 43.97413 | 21.73756 | 35095 ft | 503 kts | 118° |
| 2026-05-05 03:51 | 43.93899 | 21.82134 | 35095 ft | 505 kts | 118° |
| 2026-05-05 03:52 | 43.90380 | 21.90499 | 35085 ft | 506 kts | 117° |
| 2026-05-05 03:52 | 43.86884 | 21.98785 | 35076 ft | 505 kts | 117° |
| 2026-05-05 03:53 | 43.83337 | 22.07169 | 35086 ft | 506 kts | 117° |
| 2026-05-05 03:53 | 43.79771 | 22.15573 | 35084 ft | 504 kts | 117° |
| 2026-05-05 03:54 | 43.76232 | 22.23886 | 35086 ft | 504 kts | 117° |
| 2026-05-05 03:54 | 43.72697 | 22.32170 | 35084 ft | 504 kts | 117° |
| 2026-05-05 03:55 | 43.69312 | 22.40622 | 35082 ft | 500 kts | 109° |
| 2026-05-05 03:55 | 43.67590 | 22.49807 | 35091 ft | 493 kts | 92° |
| 2026-05-05 03:56 | 43.66878 | 22.59167 | 35088 ft | 492 kts | 92° |
| 2026-05-05 03:56 | 43.66131 | 22.68451 | 35076 ft | 491 kts | 93° |
| 2026-05-05 03:57 | 43.65325 | 22.77897 | 35079 ft | 491 kts | 93° |
| 2026-05-05 03:57 | 43.64501 | 22.87217 | 35075 ft | 491 kts | 93° |
| 2026-05-05 03:58 | 43.63661 | 22.96521 | 35076 ft | 491 kts | 93° |
| 2026-05-05 03:58 | 43.62802 | 23.05878 | 35077 ft | 491 kts | 93° |
| 2026-05-05 03:59 | 43.61940 | 23.15151 | 35072 ft | 491 kts | 94° |
| 2026-05-05 03:59 | 43.61063 | 23.24468 | 35080 ft | 491 kts | 94° |
| 2026-05-05 04:00 | 43.60178 | 23.33796 | 35072 ft | 489 kts | 93° |
| 2026-05-05 04:00 | 43.59289 | 23.43067 | 35068 ft | 489 kts | 94° |
| 2026-05-05 04:01 | 43.58396 | 23.52311 | 35074 ft | 490 kts | 94° |
| 2026-05-05 04:01 | 43.57491 | 23.61588 | 35070 ft | 488 kts | 94° |
| 2026-05-05 04:02 | 43.56578 | 23.70864 | 35066 ft | 489 kts | 94° |
| 2026-05-05 04:02 | 43.55659 | 23.80130 | 35064 ft | 489 kts | 94° |
| 2026-05-05 04:03 | 43.54734 | 23.89372 | 35063 ft | 489 kts | 95° |
| 2026-05-05 04:03 | 43.53796 | 23.98663 | 35062 ft | 488 kts | 95° |
| 2026-05-05 04:04 | 43.52859 | 24.07870 | 35063 ft | 488 kts | 95° |
| 2026-05-05 04:04 | 43.51911 | 24.17111 | 35062 ft | 488 kts | 95° |
| 2026-05-05 04:05 | 43.50957 | 24.26334 | 35064 ft | 488 kts | 95° |
| 2026-05-05 04:05 | 43.49990 | 24.35612 | 35066 ft | 488 kts | 95° |
| 2026-05-05 04:06 | 43.49020 | 24.44844 | 35068 ft | 488 kts | 95° |
| 2026-05-05 04:06 | 43.48039 | 24.54104 | 35065 ft | 488 kts | 95° |
| 2026-05-05 04:07 | 43.47057 | 24.63302 | 35063 ft | 488 kts | 95° |
| 2026-05-05 04:07 | 43.46062 | 24.72542 | 35070 ft | 488 kts | 95° |
| 2026-05-05 04:08 | 43.45062 | 24.81760 | 35068 ft | 488 kts | 95° |
| 2026-05-05 04:08 | 43.44062 | 24.90911 | 35068 ft | 488 kts | 95° |
| 2026-05-05 04:09 | 43.43044 | 25.00153 | 35063 ft | 488 kts | 95° |
| 2026-05-05 04:09 | 43.42019 | 25.09390 | 35066 ft | 488 kts | 95° |
| 2026-05-05 04:10 | 43.40997 | 25.18537 | 35062 ft | 488 kts | 95° |
| 2026-05-05 04:10 | 43.39958 | 25.27755 | 35065 ft | 487 kts | 95° |
| 2026-05-05 04:11 | 43.38921 | 25.36887 | 35066 ft | 487 kts | 95° |
| 2026-05-05 04:11 | 43.37873 | 25.46054 | 35071 ft | 487 kts | 96° |
| 2026-05-05 04:12 | 43.36815 | 25.55243 | 35070 ft | 487 kts | 96° |
| 2026-05-05 04:12 | 43.35746 | 25.64461 | 35067 ft | 487 kts | 95° |
| 2026-05-05 04:13 | 43.34672 | 25.73653 | 35065 ft | 487 kts | 96° |
| 2026-05-05 04:13 | 43.33598 | 25.82772 | 35069 ft | 487 kts | 96° |
| 2026-05-05 04:14 | 43.32514 | 25.91921 | 35065 ft | 487 kts | 96° |
| 2026-05-05 04:14 | 43.31424 | 26.01055 | 35068 ft | 486 kts | 96° |
| 2026-05-05 04:15 | 43.30321 | 26.10227 | 35069 ft | 487 kts | 96° |
| 2026-05-05 04:15 | 43.29219 | 26.19335 | 35066 ft | 487 kts | 96° |
| 2026-05-05 04:16 | 43.28100 | 26.28512 | 35069 ft | 486 kts | 96° |
| 2026-05-05 04:16 | 43.26981 | 26.37626 | 35069 ft | 487 kts | 96° |
| 2026-05-05 04:17 | 43.25855 | 26.46744 | 35070 ft | 488 kts | 97° |
| 2026-05-05 04:17 | 43.24716 | 26.55900 | 35069 ft | 487 kts | 97° |
| 2026-05-05 04:18 | 43.23576 | 26.65004 | 35071 ft | 487 kts | 97° |
| 2026-05-05 04:18 | 43.22422 | 26.74148 | 35073 ft | 487 kts | 97° |
| 2026-05-05 04:19 | 43.21257 | 26.83327 | 35073 ft | 487 kts | 97° |
| 2026-05-05 04:19 | 43.20087 | 26.92482 | 35075 ft | 486 kts | 97° |
| 2026-05-05 04:20 | 43.19026 | 27.01618 | 35074 ft | 486 kts | 96° |
| 2026-05-05 04:20 | 43.18030 | 27.10791 | 35072 ft | 487 kts | 96° |
| 2026-05-05 04:21 | 43.17020 | 27.19968 | 35071 ft | 488 kts | 96° |
| 2026-05-05 04:21 | 43.16002 | 27.29114 | 35065 ft | 489 kts | 96° |
| 2026-05-05 04:22 | 43.14966 | 27.38327 | 35065 ft | 489 kts | 96° |
| 2026-05-05 04:22 | 43.13928 | 27.47481 | 35063 ft | 489 kts | 96° |
| 2026-05-05 04:23 | 43.12883 | 27.56625 | 35061 ft | 490 kts | 96° |
| 2026-05-05 04:23 | 43.11819 | 27.65872 | 35056 ft | 490 kts | 97° |
| 2026-05-05 04:24 | 43.10759 | 27.75011 | 35057 ft | 490 kts | 97° |
| 2026-05-05 04:25 | 43.09148 | 27.88773 | 35057 ft | 491 kts | 97° |
| 2026-05-05 04:25 | 43.08058 | 27.98000 | 35053 ft | 491 kts | 97° |
| 2026-05-05 04:26 | 43.06972 | 28.07131 | 35059 ft | 489 kts | 97° |
| 2026-05-05 04:26 | 43.05877 | 28.16264 | 35056 ft | 489 kts | 97° |
| 2026-05-05 04:27 | 43.04768 | 28.25462 | 35062 ft | 489 kts | 97° |
| 2026-05-05 04:27 | 43.03667 | 28.34523 | 35068 ft | 488 kts | 97° |
| 2026-05-05 04:28 | 43.02542 | 28.43719 | 35061 ft | 488 kts | 97° |
| 2026-05-05 04:28 | 43.01427 | 28.52775 | 35057 ft | 487 kts | 97° |
| 2026-05-05 04:29 | 43.00303 | 28.61839 | 35049 ft | 485 kts | 97° |
| 2026-05-05 04:29 | 42.99164 | 28.70964 | 35059 ft | 484 kts | 98° |
| 2026-05-05 04:30 | 42.98034 | 28.79959 | 35058 ft | 484 kts | 98° |
| 2026-05-05 04:30 | 42.96893 | 28.88975 | 35053 ft | 483 kts | 98° |
| 2026-05-05 04:31 | 42.95743 | 28.98012 | 35052 ft | 484 kts | 97° |
| 2026-05-05 04:31 | 42.94591 | 29.07000 | 35059 ft | 484 kts | 98° |
| 2026-05-05 04:32 | 42.93426 | 29.16032 | 35053 ft | 484 kts | 98° |
| 2026-05-05 04:32 | 42.92257 | 29.25034 | 35070 ft | 482 kts | 97° |
| 2026-05-05 04:33 | 42.91086 | 29.33994 | 35049 ft | 480 kts | 97° |
| 2026-05-05 04:33 | 42.89914 | 29.42908 | 35053 ft | 481 kts | 97° |
| 2026-05-05 04:34 | 42.88730 | 29.51860 | 35035 ft | 479 kts | 97° |
| 2026-05-05 04:34 | 42.87544 | 29.60768 | 35028 ft | 478 kts | 97° |
| 2026-05-05 04:35 | 42.86357 | 29.69626 | 35021 ft | 478 kts | 97° |
| 2026-05-05 04:35 | 42.85152 | 29.78570 | 35034 ft | 478 kts | 97° |
| 2026-05-05 04:36 | 42.83955 | 29.87398 | 35024 ft | 477 kts | 97° |
| 2026-05-05 04:36 | 42.82747 | 29.96244 | 35025 ft | 475 kts | 97° |
| 2026-05-05 04:37 | 42.81538 | 30.05051 | 35017 ft | 474 kts | 97° |
| 2026-05-05 04:37 | 42.80327 | 30.13821 | 35007 ft | 472 kts | 97° |
| 2026-05-05 04:38 | 42.79107 | 30.22612 | 35005 ft | 473 kts | 97° |
| 2026-05-05 04:38 | 42.77891 | 30.31311 | 35005 ft | 472 kts | 96° |
| 2026-05-05 04:39 | 42.76662 | 30.40066 | 35005 ft | 474 kts | 96° |
| 2026-05-05 04:39 | 42.75413 | 30.48898 | 34998 ft | 471 kts | 96° |
| 2026-05-05 04:40 | 42.74180 | 30.57566 | 34997 ft | 470 kts | 96° |
| 2026-05-05 04:40 | 42.73139 | 30.66288 | 34997 ft | 466 kts | 93° |
| 2026-05-05 04:41 | 42.72295 | 30.74997 | 34996 ft | 467 kts | 93° |
| 2026-05-05 04:41 | 42.71425 | 30.83736 | 34999 ft | 467 kts | 93° |
| 2026-05-05 04:42 | 42.70544 | 30.92419 | 34993 ft | 467 kts | 93° |
| 2026-05-05 04:42 | 42.69650 | 31.01125 | 34990 ft | 466 kts | 93° |
| 2026-05-05 04:43 | 42.68747 | 31.09820 | 34981 ft | 465 kts | 93° |
| 2026-05-05 04:43 | 42.67838 | 31.18491 | 34989 ft | 464 kts | 93° |
| 2026-05-05 04:44 | 42.66922 | 31.27155 | 34979 ft | 464 kts | 93° |
| 2026-05-05 04:44 | 42.66003 | 31.35778 | 34980 ft | 464 kts | 93° |
| 2026-05-05 04:45 | 42.65074 | 31.44447 | 34986 ft | 466 kts | 93° |
| 2026-05-05 04:45 | 42.64137 | 31.53105 | 34986 ft | 465 kts | 93° |
| 2026-05-05 04:46 | 42.63194 | 31.61764 | 34981 ft | 466 kts | 93° |
| 2026-05-05 04:46 | 42.62252 | 31.70345 | 34981 ft | 466 kts | 94° |
| 2026-05-05 04:47 | 42.61296 | 31.79000 | 34993 ft | 465 kts | 94° |
| 2026-05-05 04:47 | 42.60330 | 31.87685 | 34982 ft | 467 kts | 94° |
| 2026-05-05 04:48 | 42.59362 | 31.96322 | 34974 ft | 466 kts | 93° |
| 2026-05-05 04:48 | 42.58388 | 32.05028 | 34984 ft | 467 kts | 93° |
| 2026-05-05 04:49 | 42.57411 | 32.13696 | 34991 ft | 466 kts | 93° |
| 2026-05-05 04:49 | 42.56422 | 32.22334 | 34983 ft | 466 kts | 94° |
| 2026-05-05 04:50 | 42.55428 | 32.30954 | 34975 ft | 465 kts | 94° |
| 2026-05-05 04:50 | 42.54424 | 32.39607 | 34980 ft | 465 kts | 94° |
| 2026-05-05 04:51 | 42.53418 | 32.48226 | 34975 ft | 464 kts | 94° |
| 2026-05-05 04:51 | 42.52404 | 32.56839 | 34978 ft | 462 kts | 94° |
| 2026-05-05 04:52 | 42.51393 | 32.65380 | 34970 ft | 462 kts | 94° |
| 2026-05-05 04:52 | 42.50371 | 32.73969 | 34970 ft | 463 kts | 94° |
| 2026-05-05 04:53 | 42.49341 | 32.82551 | 34975 ft | 461 kts | 94° |
| 2026-05-05 04:53 | 42.48306 | 32.91130 | 34978 ft | 463 kts | 94° |
| 2026-05-05 04:54 | 42.47267 | 32.99675 | 34965 ft | 460 kts | 94° |
| 2026-05-05 04:54 | 42.46224 | 33.08210 | 34971 ft | 461 kts | 94° |
| 2026-05-05 04:54 | 42.45705 | 33.12427 | 35114 ft | 460 kts | 94° |
| 2026-05-05 04:55 | 42.45177 | 33.16711 | 35105 ft | 461 kts | 95° |
| 2026-05-05 04:55 | 42.44643 | 33.21024 | 34991 ft | 460 kts | 94° |
| 2026-05-05 04:55 | 42.44116 | 33.25259 | 34984 ft | 457 kts | 95° |
| 2026-05-05 04:56 | 42.43061 | 33.33721 | 34970 ft | 461 kts | 95° |
| 2026-05-05 04:56 | 42.41996 | 33.42197 | 34982 ft | 457 kts | 95° |
| 2026-05-05 04:57 | 42.40922 | 33.50700 | 34981 ft | 460 kts | 95° |
| 2026-05-05 04:57 | 42.39845 | 33.59182 | 34975 ft | 458 kts | 95° |
| 2026-05-05 04:58 | 42.38759 | 33.67680 | 34968 ft | 459 kts | 96° |
| 2026-05-05 04:58 | 42.37660 | 33.76231 | 34991 ft | 461 kts | 96° |
| 2026-05-05 04:59 | 42.36560 | 33.84729 | 34991 ft | 459 kts | 96° |
| 2026-05-05 04:59 | 42.35459 | 33.93198 | 34979 ft | 461 kts | 96° |
| 2026-05-05 05:00 | 42.34351 | 34.01690 | 34953 ft | 460 kts | 96° |
| 2026-05-05 05:00 | 42.33234 | 34.10209 | 34982 ft | 463 kts | 97° |
| 2026-05-05 05:01 | 42.32108 | 34.18735 | 34986 ft | 460 kts | 96° |
| 2026-05-05 05:01 | 42.30982 | 34.27214 | 34985 ft | 459 kts | 96° |
| 2026-05-05 05:02 | 42.29847 | 34.35714 | 34996 ft | 463 kts | 97° |
| 2026-05-05 05:02 | 42.28705 | 34.44200 | 34985 ft | 460 kts | 97° |
| 2026-05-05 05:03 | 42.27557 | 34.52690 | 34999 ft | 464 kts | 97° |
| 2026-05-05 05:03 | 42.26394 | 34.61228 | 35003 ft | 462 kts | 97° |
| 2026-05-05 05:04 | 42.25225 | 34.69765 | 34989 ft | 461 kts | 98° |
| 2026-05-05 05:04 | 42.24048 | 34.78312 | 34996 ft | 464 kts | 98° |
| 2026-05-05 05:05 | 42.22875 | 34.86762 | 34973 ft | 461 kts | 98° |
| 2026-05-05 05:05 | 42.21685 | 34.95280 | 34983 ft | 464 kts | 98° |
| 2026-05-05 05:06 | 42.20487 | 35.03808 | 34973 ft | 464 kts | 98° |
| 2026-05-05 05:06 | 42.19282 | 35.12338 | 34982 ft | 464 kts | 98° |
| 2026-05-05 05:07 | 42.18069 | 35.20875 | 34988 ft | 466 kts | 98° |
| 2026-05-05 05:07 | 42.16845 | 35.29445 | 34974 ft | 465 kts | 98° |
| 2026-05-05 05:08 | 42.15620 | 35.37967 | 34977 ft | 466 kts | 99° |
| 2026-05-05 05:08 | 42.14390 | 35.46495 | 34967 ft | 465 kts | 99° |
| 2026-05-05 05:09 | 42.13146 | 35.55084 | 34975 ft | 467 kts | 99° |
| 2026-05-05 05:09 | 42.11903 | 35.63616 | 34980 ft | 467 kts | 99° |
| 2026-05-05 05:10 | 42.10644 | 35.72214 | 34977 ft | 469 kts | 99° |
| 2026-05-05 05:10 | 42.09385 | 35.80765 | 34974 ft | 469 kts | 99° |
| 2026-05-05 05:11 | 42.08107 | 35.89399 | 34975 ft | 470 kts | 100° |
| 2026-05-05 05:11 | 42.06826 | 35.97998 | 34960 ft | 470 kts | 100° |
| 2026-05-05 05:12 | 42.05540 | 36.06593 | 34964 ft | 471 kts | 100° |
| 2026-05-05 05:12 | 42.04239 | 36.15232 | 34974 ft | 470 kts | 100° |
| 2026-05-05 05:13 | 42.02943 | 36.23799 | 34995 ft | 472 kts | 100° |
| 2026-05-05 05:13 | 42.01629 | 36.32440 | 34986 ft | 471 kts | 100° |
| 2026-05-05 05:14 | 42.00312 | 36.41048 | 34996 ft | 472 kts | 101° |
| 2026-05-05 05:14 | 41.98988 | 36.49661 | 34991 ft | 471 kts | 101° |
| 2026-05-05 05:15 | 41.97657 | 36.58277 | 34986 ft | 473 kts | 101° |
| 2026-05-05 05:15 | 41.96314 | 36.66918 | 34991 ft | 474 kts | 102° |
| 2026-05-05 05:16 | 41.94963 | 36.75570 | 34992 ft | 472 kts | 101° |
| 2026-05-05 05:16 | 41.93620 | 36.84123 | 34987 ft | 472 kts | 102° |
| 2026-05-05 05:17 | 41.92264 | 36.92719 | 34989 ft | 473 kts | 102° |
| 2026-05-05 05:17 | 41.90889 | 37.01384 | 34990 ft | 474 kts | 102° |
| 2026-05-05 05:18 | 41.90272 | 37.10138 | 34993 ft | 475 kts | 91° |
| 2026-05-05 05:18 | 41.90162 | 37.19030 | 34986 ft | 475 kts | 91° |
| 2026-05-05 05:19 | 41.90042 | 37.27833 | 34986 ft | 475 kts | 91° |
| 2026-05-05 05:19 | 41.89908 | 37.36706 | 34982 ft | 475 kts | 91° |
| 2026-05-05 05:20 | 41.89766 | 37.45517 | 34983 ft | 475 kts | 91° |
| 2026-05-05 05:20 | 41.89616 | 37.54354 | 34974 ft | 475 kts | 91° |
| 2026-05-05 05:21 | 41.89458 | 37.63168 | 34970 ft | 476 kts | 92° |
| 2026-05-05 05:21 | 41.89291 | 37.72082 | 34970 ft | 476 kts | 92° |
| 2026-05-05 05:22 | 41.89119 | 37.80893 | 34977 ft | 477 kts | 92° |
| 2026-05-05 05:22 | 41.88938 | 37.89756 | 34968 ft | 477 kts | 92° |
| 2026-05-05 05:23 | 41.88751 | 37.98647 | 34974 ft | 478 kts | 93° |
| 2026-05-05 05:23 | 41.88557 | 38.07506 | 34984 ft | 479 kts | 92° |
| 2026-05-05 05:24 | 41.88355 | 38.16419 | 34975 ft | 478 kts | 92° |
| 2026-05-05 05:24 | 41.88147 | 38.25323 | 34965 ft | 478 kts | 93° |
| 2026-05-05 05:25 | 41.87932 | 38.34211 | 34969 ft | 479 kts | 93° |
| 2026-05-05 05:25 | 41.87709 | 38.43147 | 34966 ft | 479 kts | 93° |
| 2026-05-05 05:26 | 41.87477 | 38.52129 | 34962 ft | 481 kts | 93° |
| 2026-05-05 05:26 | 41.87241 | 38.61021 | 34954 ft | 480 kts | 93° |
| 2026-05-05 05:27 | 41.86997 | 38.69984 | 34955 ft | 481 kts | 94° |
| 2026-05-05 05:27 | 41.86617 | 38.83400 | 34955 ft | 481 kts | 94° |
| 2026-05-05 05:28 | 41.86356 | 38.92343 | 34956 ft | 482 kts | 94° |
| 2026-05-05 05:28 | 41.86086 | 39.01337 | 34954 ft | 482 kts | 94° |
| 2026-05-05 05:29 | 41.85810 | 39.10283 | 34947 ft | 482 kts | 94° |
| 2026-05-05 05:29 | 41.85528 | 39.19222 | 34957 ft | 482 kts | 94° |
| 2026-05-05 05:30 | 41.85239 | 39.28154 | 34955 ft | 483 kts | 94° |
| 2026-05-05 05:30 | 41.84941 | 39.37140 | 34950 ft | 484 kts | 94° |
| 2026-05-05 05:31 | 41.84634 | 39.46175 | 34948 ft | 485 kts | 94° |
| 2026-05-05 05:31 | 41.84320 | 39.55211 | 34951 ft | 485 kts | 94° |
| 2026-05-05 05:32 | 41.84002 | 39.64223 | 34950 ft | 487 kts | 94° |
| 2026-05-05 05:32 | 41.83675 | 39.73256 | 34942 ft | 485 kts | 95° |
| 2026-05-05 05:33 | 41.83341 | 39.82290 | 34939 ft | 487 kts | 95° |
| 2026-05-05 05:33 | 41.83000 | 39.91328 | 34937 ft | 487 kts | 95° |
| 2026-05-05 05:34 | 41.82651 | 40.00375 | 34936 ft | 487 kts | 95° |
| 2026-05-05 05:34 | 41.82293 | 40.09469 | 34938 ft | 489 kts | 95° |
| 2026-05-05 05:35 | 41.81930 | 40.18521 | 34937 ft | 488 kts | 95° |
| 2026-05-05 05:35 | 41.81560 | 40.27526 | 34939 ft | 488 kts | 95° |
| 2026-05-05 05:36 | 41.81181 | 40.36577 | 34935 ft | 487 kts | 95° |
| 2026-05-05 05:36 | 41.80794 | 40.45646 | 34932 ft | 489 kts | 95° |
| 2026-05-05 05:37 | 41.80402 | 40.54687 | 34933 ft | 489 kts | 95° |
| 2026-05-05 05:37 | 41.80031 | 40.63824 | 34926 ft | 491 kts | 91° |
| 2026-05-05 05:38 | 41.80800 | 40.72925 | 34930 ft | 493 kts | 83° |
| 2026-05-05 05:38 | 41.81927 | 40.82004 | 34932 ft | 495 kts | 83° |
| 2026-05-05 05:39 | 41.83046 | 40.91087 | 34934 ft | 494 kts | 83° |
| 2026-05-05 05:39 | 41.84153 | 41.00153 | 34926 ft | 494 kts | 83° |
| 2026-05-05 05:40 | 41.85254 | 41.09256 | 34932 ft | 494 kts | 83° |
| 2026-05-05 05:40 | 41.86347 | 41.18354 | 34932 ft | 495 kts | 83° |
| 2026-05-05 05:41 | 41.87428 | 41.27420 | 34940 ft | 495 kts | 83° |
| 2026-05-05 05:41 | 41.88506 | 41.36530 | 34946 ft | 496 kts | 83° |
| 2026-05-05 05:42 | 41.89582 | 41.45678 | 34950 ft | 496 kts | 83° |
| 2026-05-05 05:42 | 41.90653 | 41.54855 | 34957 ft | 496 kts | 83° |
| 2026-05-05 05:43 | 41.91711 | 41.63989 | 34950 ft | 496 kts | 83° |
| 2026-05-05 05:43 | 41.92762 | 41.73127 | 34948 ft | 496 kts | 84° |
| 2026-05-05 05:44 | 41.93806 | 41.82271 | 34938 ft | 495 kts | 84° |
| 2026-05-05 05:44 | 41.94843 | 41.91418 | 34942 ft | 496 kts | 84° |
| 2026-05-05 05:45 | 41.95874 | 42.00576 | 34934 ft | 496 kts | 84° |
| 2026-05-05 05:45 | 41.96904 | 42.09806 | 34930 ft | 497 kts | 84° |
| 2026-05-05 05:46 | 41.97916 | 42.18930 | 34932 ft | 498 kts | 84° |
| 2026-05-05 05:46 | 41.98934 | 42.28177 | 34928 ft | 499 kts | 84° |
| 2026-05-05 05:47 | 41.99939 | 42.37378 | 34924 ft | 499 kts | 84° |
| 2026-05-05 05:47 | 42.00930 | 42.46531 | 34924 ft | 499 kts | 84° |
| 2026-05-05 05:48 | 42.01922 | 42.55749 | 34920 ft | 500 kts | 84° |
| 2026-05-05 05:48 | 42.02909 | 42.65006 | 34914 ft | 501 kts | 84° |
| 2026-05-05 05:49 | 42.03894 | 42.74312 | 34913 ft | 501 kts | 85° |
| 2026-05-05 05:49 | 42.04863 | 42.83529 | 34917 ft | 501 kts | 85° |
| 2026-05-05 05:50 | 42.05669 | 42.92801 | 34921 ft | 498 kts | 92° |
| 2026-05-05 05:50 | 42.04786 | 43.01894 | 34921 ft | 490 kts | 110° |
| 2026-05-05 05:51 | 42.02111 | 43.10245 | 34924 ft | 487 kts | 120° |
| 2026-05-05 05:51 | 41.99056 | 43.18299 | 34921 ft | 485 kts | 121° |
| 2026-05-05 05:52 | 41.95940 | 43.26353 | 34919 ft | 486 kts | 121° |
| 2026-05-05 05:52 | 41.92809 | 43.34358 | 34924 ft | 485 kts | 121° |
| 2026-05-05 05:53 | 41.89661 | 43.42348 | 34920 ft | 486 kts | 121° |
| 2026-05-05 05:53 | 41.86494 | 43.50347 | 34928 ft | 486 kts | 122° |
| 2026-05-05 05:54 | 41.83321 | 43.58325 | 34935 ft | 487 kts | 122° |
| 2026-05-05 05:54 | 41.80139 | 43.66301 | 34945 ft | 487 kts | 122° |
| 2026-05-05 05:55 | 41.76929 | 43.74323 | 34947 ft | 487 kts | 122° |
| 2026-05-05 05:55 | 41.73725 | 43.82305 | 34950 ft | 487 kts | 122° |
| 2026-05-05 05:56 | 41.70513 | 43.90282 | 34947 ft | 488 kts | 122° |
| 2026-05-05 05:56 | 41.67297 | 43.98250 | 34948 ft | 487 kts | 122° |
| 2026-05-05 05:57 | 41.64064 | 44.06238 | 34946 ft | 487 kts | 122° |
| 2026-05-05 05:57 | 41.60837 | 44.14189 | 34954 ft | 487 kts | 123° |
| 2026-05-05 05:58 | 41.57816 | 44.22261 | 34957 ft | 493 kts | 114° |
| 2026-05-05 05:58 | 41.56345 | 44.31288 | 34960 ft | 503 kts | 101° |
| 2026-05-05 05:59 | 41.55460 | 44.40506 | 34949 ft | 503 kts | 101° |
| 2026-05-05 05:59 | 41.54563 | 44.49726 | 34950 ft | 505 kts | 102° |
| 2026-05-05 06:00 | 41.53641 | 44.59046 | 34951 ft | 505 kts | 102° |
| 2026-05-05 06:00 | 41.52715 | 44.68300 | 34944 ft | 503 kts | 102° |
| 2026-05-05 06:01 | 41.51779 | 44.77541 | 34929 ft | 505 kts | 102° |
| 2026-05-05 06:01 | 41.50838 | 44.86752 | 34940 ft | 504 kts | 102° |
| 2026-05-05 06:02 | 41.49889 | 44.95961 | 34939 ft | 503 kts | 103° |
| 2026-05-05 06:02 | 41.48923 | 45.05244 | 34938 ft | 507 kts | 103° |
| 2026-05-05 06:03 | 41.47952 | 45.14515 | 34949 ft | 506 kts | 103° |
| 2026-05-05 06:03 | 41.46701 | 45.23754 | 34941 ft | 504 kts | 112° |
| 2026-05-05 06:04 | 41.43786 | 45.31995 | 34947 ft | 485 kts | 130° |
| 2026-05-05 06:04 | 41.39495 | 45.38851 | 34950 ft | 481 kts | 138° |
| 2026-05-05 06:05 | 41.34995 | 45.45422 | 34925 ft | 482 kts | 139° |
| 2026-05-05 06:05 | 41.30473 | 45.51944 | 34956 ft | 481 kts | 139° |
| 2026-05-05 06:06 | 41.25930 | 45.58447 | 34945 ft | 478 kts | 139° |
| 2026-05-05 06:06 | 41.21693 | 45.65340 | 34941 ft | 492 kts | 128° |
| 2026-05-05 06:07 | 41.18885 | 45.73783 | 34938 ft | 505 kts | 116° |
| 2026-05-05 06:07 | 41.16569 | 45.82617 | 34932 ft | 507 kts | 116° |
| 2026-05-05 06:08 | 41.14235 | 45.91478 | 34939 ft | 510 kts | 116° |
| 2026-05-05 06:08 | 41.11904 | 46.00287 | 34917 ft | 507 kts | 116° |
| 2026-05-05 06:09 | 41.09535 | 46.09189 | 34930 ft | 509 kts | 117° |
| 2026-05-05 06:09 | 41.07180 | 46.18001 | 34921 ft | 507 kts | 116° |
| 2026-05-05 06:10 | 41.04827 | 46.26772 | 34929 ft | 507 kts | 117° |
| 2026-05-05 06:10 | 41.02462 | 46.35601 | 34919 ft | 509 kts | 116° |
| 2026-05-05 06:11 | 41.00098 | 46.44452 | 34928 ft | 509 kts | 116° |
| 2026-05-05 06:11 | 40.97741 | 46.53247 | 34941 ft | 508 kts | 117° |
| 2026-05-05 06:12 | 40.95364 | 46.62073 | 34924 ft | 509 kts | 117° |
| 2026-05-05 06:12 | 40.92977 | 46.70914 | 34913 ft | 507 kts | 117° |
| 2026-05-05 06:13 | 40.90597 | 46.79688 | 34928 ft | 509 kts | 117° |
| 2026-05-05 06:13 | 40.88200 | 46.88480 | 34935 ft | 509 kts | 117° |
| 2026-05-05 06:14 | 40.85774 | 46.97323 | 34934 ft | 509 kts | 117° |
| 2026-05-05 06:14 | 40.83369 | 47.06065 | 34940 ft | 509 kts | 118° |
| 2026-05-05 06:15 | 40.80948 | 47.14834 | 34939 ft | 509 kts | 118° |
| 2026-05-05 06:15 | 40.78489 | 47.23657 | 34941 ft | 509 kts | 118° |
| 2026-05-05 06:16 | 40.76053 | 47.32358 | 34934 ft | 510 kts | 118° |
| 2026-05-05 06:16 | 40.73590 | 47.41128 | 34944 ft | 509 kts | 118° |
| 2026-05-05 06:17 | 40.71127 | 47.49899 | 34966 ft | 511 kts | 118° |
| 2026-05-05 06:17 | 40.68677 | 47.58601 | 34958 ft | 508 kts | 118° |
| 2026-05-05 06:18 | 40.66199 | 47.67369 | 34942 ft | 509 kts | 118° |
| 2026-05-05 06:18 | 40.63744 | 47.76026 | 34943 ft | 507 kts | 118° |
| 2026-05-05 06:19 | 40.61268 | 47.84724 | 34937 ft | 508 kts | 118° |
| 2026-05-05 06:19 | 40.58797 | 47.93383 | 34941 ft | 507 kts | 118° |
| 2026-05-05 06:20 | 40.56493 | 48.02190 | 34948 ft | 512 kts | 115° |
| 2026-05-05 06:20 | 40.54342 | 48.11083 | 34933 ft | 511 kts | 115° |
| 2026-05-05 06:21 | 40.52176 | 48.19952 | 34931 ft | 512 kts | 115° |
| 2026-05-05 06:21 | 40.49989 | 48.28860 | 34934 ft | 512 kts | 115° |
| 2026-05-05 06:22 | 40.47792 | 48.37764 | 34926 ft | 511 kts | 115° |
| 2026-05-05 06:22 | 40.45591 | 48.46630 | 34923 ft | 511 kts | 115° |
| 2026-05-05 06:23 | 40.43381 | 48.55498 | 34929 ft | 512 kts | 115° |
| 2026-05-05 06:23 | 40.41162 | 48.64361 | 34926 ft | 512 kts | 115° |
| 2026-05-05 06:24 | 40.38938 | 48.73213 | 34917 ft | 511 kts | 116° |
| 2026-05-05 06:24 | 40.36710 | 48.82046 | 34914 ft | 511 kts | 116° |
| 2026-05-05 06:25 | 40.34463 | 48.90915 | 34921 ft | 514 kts | 116° |
| 2026-05-05 06:25 | 40.32211 | 48.99784 | 34916 ft | 512 kts | 116° |
| 2026-05-05 06:26 | 40.29958 | 49.08591 | 34912 ft | 514 kts | 116° |
| 2026-05-05 06:26 | 40.27663 | 49.17457 | 34912 ft | 512 kts | 116° |
| 2026-05-05 06:27 | 40.24252 | 49.30623 | 34911 ft | 513 kts | 116° |
| 2026-05-05 06:28 | 40.21959 | 49.39472 | 34911 ft | 514 kts | 116° |
| 2026-05-05 06:28 | 40.19667 | 49.48288 | 34915 ft | 512 kts | 116° |
| 2026-05-05 06:29 | 40.17355 | 49.57145 | 34918 ft | 514 kts | 116° |
| 2026-05-05 06:29 | 40.15050 | 49.65950 | 34922 ft | 516 kts | 117° |
| 2026-05-05 06:30 | 40.12714 | 49.74845 | 34914 ft | 514 kts | 117° |
| 2026-05-05 06:30 | 40.10389 | 49.83658 | 34923 ft | 516 kts | 117° |
| 2026-05-05 06:31 | 40.08064 | 49.92446 | 34921 ft | 514 kts | 117° |
| 2026-05-05 06:31 | 40.05728 | 50.01244 | 34926 ft | 513 kts | 117° |
| 2026-05-05 06:32 | 40.03374 | 50.10077 | 34929 ft | 513 kts | 117° |
| 2026-05-05 06:32 | 40.01023 | 50.18866 | 34922 ft | 514 kts | 117° |
| 2026-05-05 06:33 | 39.98676 | 50.27615 | 34918 ft | 513 kts | 117° |
| 2026-05-05 06:33 | 39.98291 | 50.29044 | 34916 ft | 513 kts | 117° |